createdAt,value
2018-12-01T00:01:00.477Z,100392.71
2018-12-01T00:03:28.337Z,100387.52
2018-12-01T00:05:56.165Z,100376.70
2018-12-01T00:08:24.020Z,100376.64
2018-12-01T00:10:51.841Z,100376.44
2018-12-01T00:13:19.641Z,100380.03
2018-12-01T00:15:47.566Z,100381.20
2018-12-01T00:18:15.401Z,100377.10
2018-12-01T00:20:43.247Z,100377.95
2018-12-01T00:23:11.057Z,100381.48
2018-12-01T00:25:38.841Z,100370.59
2018-12-01T00:28:06.680Z,100354.70
2018-12-01T00:30:34.505Z,100359.14
2018-12-01T00:33:02.522Z,100354.95
2018-12-01T00:35:30.326Z,100357.47
2018-12-01T00:37:58.159Z,100351.28
2018-12-01T00:40:25.961Z,100346.31
2018-12-01T00:42:53.753Z,100346.53
2018-12-01T00:45:22.369Z,100344.88
2018-12-01T00:47:51.338Z,100347.34
2018-12-01T00:50:21.145Z,100347.52
2018-12-01T00:52:49.724Z,100340.61
2018-12-01T00:55:18.280Z,100335.64
2018-12-01T00:57:45.989Z,100326.96
2018-12-01T01:00:18.674Z,100326.89
2018-12-01T01:02:50.447Z,100319.75
2018-12-01T01:05:18.246Z,100320.57
2018-12-01T01:07:46.018Z,100310.34
2018-12-01T01:10:13.745Z,100313.95
2018-12-01T01:12:41.489Z,100307.59
2018-12-01T01:15:09.248Z,100308.37
2018-12-01T01:17:37.042Z,100307.68
2018-12-01T01:20:09.106Z,100299.31
2018-12-01T01:22:36.861Z,100300.63
2018-12-01T01:25:05.349Z,100303.27
2018-12-01T01:27:33.095Z,100301.55
2018-12-01T01:30:00.860Z,100305.23
2018-12-01T01:32:28.589Z,100306.66
2018-12-01T01:34:56.336Z,100305.81
2018-12-01T01:37:24.018Z,100306.08
2018-12-01T01:39:51.721Z,100302.69
2018-12-01T01:42:19.461Z,100295.70
2018-12-01T01:44:47.154Z,100303.91
2018-12-01T01:47:14.861Z,100305.14
2018-12-01T01:49:42.605Z,100295.34
2018-12-01T01:52:10.318Z,100301.52
2018-12-01T01:54:38.024Z,100301.27
2018-12-01T01:57:05.798Z,100295.14
2018-12-01T01:59:33.545Z,100291.86
2018-12-01T02:02:01.277Z,100293.17
2018-12-01T02:04:28.986Z,100309.11
2018-12-01T02:06:56.787Z,100309.34
2018-12-01T02:09:24.465Z,100308.08
2018-12-01T02:11:52.203Z,100305.02
2018-12-01T02:14:19.904Z,100313.80
2018-12-01T02:16:47.622Z,100302.45
2018-12-01T02:19:15.343Z,100306.06
2018-12-01T02:21:43.026Z,100308.20
2018-12-01T02:24:10.697Z,100306.41
2018-12-01T02:26:38.517Z,100299.67
2018-12-01T02:29:06.198Z,100297.75
2018-12-01T02:31:33.875Z,100299.62
2018-12-01T02:34:01.600Z,100300.84
2018-12-01T02:36:29.295Z,100295.09
2018-12-01T02:38:57.007Z,100298.77
2018-12-01T02:41:24.721Z,100301.64
2018-12-01T02:44:03.573Z,100291.93
2018-12-01T02:47:35.058Z,100299.44
2018-12-01T02:50:03.370Z,100312.08
2018-12-01T02:52:31.077Z,100303.82
2018-12-01T02:54:58.789Z,100306.80
2018-12-01T02:57:26.506Z,100310.24
2018-12-01T02:59:54.228Z,100320.09
2018-12-01T03:02:24.080Z,100317.43
2018-12-01T03:04:52.416Z,100318.03
2018-12-01T03:07:20.237Z,100316.76
2018-12-01T03:09:47.985Z,100321.63
2018-12-01T03:12:15.717Z,100317.94
2018-12-01T03:14:43.421Z,100314.31
2018-12-01T03:17:11.165Z,100313.00
2018-12-01T03:19:38.886Z,100310.97
2018-12-01T03:22:06.577Z,100309.19
2018-12-01T03:24:34.286Z,100298.19
2018-12-01T03:27:01.981Z,100304.44
2018-12-01T03:29:29.732Z,100308.58
2018-12-01T03:31:57.474Z,100302.35
2018-12-01T03:34:25.169Z,100299.94
2018-12-01T03:36:52.878Z,100301.66
2018-12-01T03:39:20.597Z,100297.16
2018-12-01T03:41:48.389Z,100296.73
2018-12-01T03:44:16.085Z,100290.81
2018-12-01T03:46:43.861Z,100294.10
2018-12-01T03:49:11.589Z,100295.26
2018-12-01T03:51:39.278Z,100299.85
2018-12-01T03:54:07.196Z,100301.98
2018-12-01T03:56:34.913Z,100298.83
2018-12-01T03:59:02.606Z,100300.27
2018-12-01T04:01:30.346Z,100305.94
2018-12-01T04:03:58.142Z,100309.09
2018-12-01T04:06:25.821Z,100310.31
2018-12-01T04:08:53.581Z,100303.70
2018-12-01T04:11:21.258Z,100309.39
2018-12-01T04:13:48.946Z,100309.11
2018-12-01T04:16:16.689Z,100305.66
2018-12-01T04:18:44.389Z,100305.41
2018-12-01T04:21:12.077Z,100304.86
2018-12-01T04:23:39.833Z,100303.67
2018-12-01T04:26:07.525Z,100300.73
2018-12-01T04:28:35.214Z,100297.73
2018-12-01T04:31:02.929Z,100301.28
2018-12-01T04:33:30.667Z,100310.17
2018-12-01T04:35:58.407Z,100310.92
2018-12-01T04:38:26.133Z,100309.23
2018-12-01T04:40:53.840Z,100307.45
2018-12-01T04:43:21.661Z,100313.47
2018-12-01T04:45:49.393Z,100322.72
2018-12-01T04:48:17.086Z,100317.47
2018-12-01T04:50:44.812Z,100312.53
2018-12-01T04:53:12.622Z,100321.10
2018-12-01T04:55:40.347Z,100320.44
2018-12-01T04:58:08.071Z,100320.02
2018-12-01T05:00:35.811Z,100323.06
2018-12-01T05:03:03.505Z,100318.18
2018-12-01T05:05:31.217Z,100320.71
2018-12-01T05:07:58.969Z,100314.32
2018-12-01T05:10:26.729Z,100319.35
2018-12-01T05:12:54.421Z,100316.08
2018-12-01T05:15:22.169Z,100310.26
2018-12-01T05:17:49.873Z,100321.45
2018-12-01T05:20:20.607Z,100324.16
2018-12-01T05:22:48.858Z,100327.53
2018-12-01T05:25:16.639Z,100330.17
2018-12-01T05:27:44.397Z,100323.12
2018-12-01T05:30:12.151Z,100317.99
2018-12-01T05:32:39.894Z,100332.61
2018-12-01T05:35:13.873Z,100335.55
2018-12-01T05:37:41.586Z,100341.39
2018-12-01T05:40:10.433Z,100331.30
2018-12-01T05:42:38.263Z,100325.65
2018-12-01T05:45:09.546Z,100321.21
2018-12-01T05:47:37.260Z,100319.64
2018-12-01T05:50:06.395Z,100330.28
2018-12-01T05:52:34.086Z,100331.16
2018-12-01T05:55:01.884Z,100323.28
2018-12-01T05:57:29.717Z,100337.55
2018-12-01T05:59:57.389Z,100331.66
2018-12-01T06:02:25.099Z,100327.63
2018-12-01T06:04:52.842Z,100322.61
2018-12-01T06:07:20.582Z,100319.06
2018-12-01T06:09:48.288Z,100326.92
2018-12-01T06:12:16.134Z,100333.06
2018-12-01T06:14:43.901Z,100335.06
2018-12-01T06:17:11.617Z,100339.10
2018-12-01T06:19:39.400Z,100350.09
2018-12-01T06:22:07.150Z,100347.42
2018-12-01T06:24:34.841Z,100349.62
2018-12-01T06:27:02.633Z,100354.52
2018-12-01T06:29:30.336Z,100352.75
2018-12-01T06:31:58.059Z,100361.78
2018-12-01T06:34:25.789Z,100350.10
2018-12-01T06:36:53.468Z,100346.30
2018-12-01T06:39:21.184Z,100350.26
2018-12-01T06:41:48.908Z,100352.78
2018-12-01T06:44:16.634Z,100354.81
2018-12-01T06:46:44.349Z,100355.84
2018-12-01T06:49:12.092Z,100345.78
2018-12-01T06:51:39.809Z,100351.67
2018-12-01T06:54:07.527Z,100346.88
2018-12-01T06:56:35.257Z,100354.84
2018-12-01T06:59:02.941Z,100368.63
2018-12-01T07:01:30.620Z,100372.13
2018-12-01T07:03:58.334Z,100374.98
2018-12-01T07:06:26.038Z,100376.12
2018-12-01T07:08:53.822Z,100371.03
2018-12-01T07:11:21.537Z,100360.14
2018-12-01T07:13:49.242Z,100357.62
2018-12-01T07:16:16.957Z,100362.37
2018-12-01T07:18:55.777Z,100357.94
2018-12-01T07:21:23.477Z,100363.86
2018-12-01T07:23:51.170Z,100369.18
2018-12-01T07:26:18.893Z,100369.19
2018-12-01T07:28:46.597Z,100359.77
2018-12-01T07:31:14.316Z,100359.54
2018-12-01T07:33:42.041Z,100368.68
2018-12-01T07:36:09.783Z,100369.18
2018-12-01T07:38:37.510Z,100370.46
2018-12-01T07:41:05.669Z,100365.73
2018-12-01T07:43:33.370Z,100370.44
2018-12-01T07:46:01.080Z,100364.95
2018-12-01T07:48:28.808Z,100366.88
2018-12-01T07:50:56.500Z,100366.16
2018-12-01T07:53:24.221Z,100365.05
2018-12-01T07:55:52.008Z,100356.98
2018-12-01T07:58:19.744Z,100357.38
2018-12-01T08:00:47.429Z,100353.95
2018-12-01T08:03:15.158Z,100357.88
2018-12-01T08:05:42.874Z,100351.35
2018-12-01T08:08:10.575Z,100339.03
2018-12-01T08:10:38.340Z,100342.30
2018-12-01T08:13:06.041Z,100352.78
2018-12-01T08:15:33.757Z,100343.98
2018-12-01T08:18:01.632Z,100349.28
2018-12-01T08:20:29.317Z,100348.44
2018-12-01T08:22:57.006Z,100341.65
2018-12-01T08:25:24.734Z,100346.67
2018-12-01T08:27:54.004Z,100334.75
2018-12-01T08:30:25.985Z,100339.47
2018-12-01T08:32:53.717Z,100334.57
2018-12-01T08:35:21.715Z,100323.40
2018-12-01T08:37:49.464Z,100332.52
2018-12-01T08:40:18.441Z,100330.11
2018-12-01T08:42:46.158Z,100331.27
2018-12-01T08:45:13.977Z,100329.60
2018-12-01T08:47:42.016Z,100332.95
2018-12-01T08:50:15.673Z,100339.06
2018-12-01T08:52:43.421Z,100335.64
2018-12-01T08:55:13.536Z,100333.67
2018-12-01T08:57:41.313Z,100334.05
2018-12-01T09:00:17.454Z,100337.38
2018-12-01T09:02:46.269Z,100337.28
2018-12-01T09:05:14.001Z,100328.81
2018-12-01T09:07:41.681Z,100336.57
2018-12-01T09:10:10.105Z,100326.66
2018-12-01T09:12:37.807Z,100319.00
2018-12-01T09:15:08.866Z,100315.30
2018-12-01T09:17:37.294Z,100331.11
2018-12-01T09:20:07.615Z,100330.50
2018-12-01T09:22:35.326Z,100322.92
2018-12-01T09:25:03.129Z,100319.81
2018-12-01T09:27:30.814Z,100325.09
2018-12-01T09:29:58.624Z,100315.13
2018-12-01T09:32:26.365Z,100310.16
2018-12-01T09:34:54.085Z,100305.55
2018-12-01T09:37:21.813Z,100299.62
2018-12-01T09:39:49.543Z,100297.96
2018-12-01T09:42:17.339Z,100294.78
2018-12-01T09:44:45.073Z,100296.62
2018-12-01T09:47:12.790Z,100291.75
2018-12-01T09:49:40.506Z,100285.41
2018-12-01T09:52:08.260Z,100291.39
2018-12-01T09:54:36.087Z,100295.13
2018-12-01T09:57:03.821Z,100295.91
2018-12-01T09:59:31.602Z,100298.55
2018-12-01T10:01:59.355Z,100299.50
2018-12-01T10:04:27.037Z,100298.57
2018-12-01T10:06:54.746Z,100289.90
2018-12-01T10:09:22.518Z,100282.75
2018-12-01T10:11:50.598Z,100274.98
2018-12-01T10:14:18.085Z,100275.41
2018-12-01T10:16:45.829Z,100271.64
2018-12-01T10:19:13.518Z,100284.70
2018-12-01T10:21:41.221Z,100288.11
2018-12-01T10:24:08.984Z,100277.80
2018-12-01T10:26:36.669Z,100278.95
2018-12-01T10:29:04.546Z,100279.86
2018-12-01T10:31:32.334Z,100285.00
2018-12-01T10:34:00.022Z,100281.73
2018-12-01T10:36:28.992Z,100279.58
2018-12-01T10:38:55.625Z,100287.07
2018-12-01T10:41:23.331Z,100279.98
2018-12-01T10:43:51.013Z,100276.13
2018-12-01T10:46:18.839Z,100269.56
2018-12-01T10:48:46.549Z,100265.47
2018-12-01T10:51:14.250Z,100263.83
2018-12-01T10:53:41.969Z,100272.19
2018-12-01T10:56:09.729Z,100275.29
2018-12-01T10:58:37.501Z,100270.34
2018-12-01T11:03:18.611Z,100272.88
2018-12-01T11:05:46.400Z,100270.52
2018-12-01T11:08:15.024Z,100268.92
2018-12-01T11:10:42.975Z,100259.54
2018-12-01T11:13:10.735Z,100263.33
2018-12-01T11:15:38.481Z,100257.20
2018-12-01T11:18:06.261Z,100265.06
2018-12-01T11:20:34.021Z,100257.32
2018-12-01T11:23:01.782Z,100256.47
2018-12-01T11:25:29.600Z,100254.67
2018-12-01T11:27:57.410Z,100261.55
2018-12-01T11:30:25.120Z,100258.16
2018-12-01T11:32:52.977Z,100262.94
2018-12-01T11:35:20.692Z,100267.48
2018-12-01T11:37:48.433Z,100259.06
2018-12-01T11:40:17.208Z,100266.23
2018-12-01T11:42:45.059Z,100264.94
2018-12-01T11:45:13.908Z,100252.52
2018-12-01T11:47:41.669Z,100252.31
2018-12-01T11:50:18.701Z,100247.09
2018-12-01T11:52:47.337Z,100234.50
2018-12-01T11:55:16.390Z,100241.61
2018-12-01T11:57:44.125Z,100240.41
2018-12-01T12:00:19.041Z,100235.70
2018-12-01T12:02:46.810Z,100241.28
2018-12-01T12:05:15.272Z,100240.92
2018-12-01T12:07:54.134Z,100238.00
2018-12-01T12:10:21.882Z,100234.51
2018-12-01T12:12:50.162Z,100239.48
2018-12-01T12:15:18.573Z,100244.77
2018-12-01T12:17:48.753Z,100245.96
2018-12-01T12:20:16.461Z,100245.34
2018-12-01T12:22:44.277Z,100252.80
2018-12-01T12:25:12.017Z,100254.56
2018-12-01T12:27:39.761Z,100258.72
2018-12-01T12:30:12.541Z,100264.97
2018-12-01T12:32:40.365Z,100268.09
2018-12-01T12:35:09.297Z,100261.08
2018-12-01T12:37:36.989Z,100249.35
2018-12-01T12:40:09.189Z,100254.42
2018-12-01T12:42:36.905Z,100255.40
2018-12-01T12:45:06.816Z,100250.89
2018-12-01T12:47:34.541Z,100251.05
2018-12-01T12:50:02.274Z,100252.11
2018-12-01T12:52:29.940Z,100256.55
2018-12-01T12:54:57.669Z,100258.13
2018-12-01T12:57:25.388Z,100255.29
2018-12-01T12:59:53.072Z,100251.48
2018-12-01T13:02:20.785Z,100251.84
2018-12-01T13:04:48.510Z,100257.19
2018-12-01T13:07:16.221Z,100256.05
2018-12-01T13:09:43.945Z,100253.34
2018-12-01T13:12:11.682Z,100261.84
2018-12-01T13:14:39.381Z,100258.03
2018-12-01T13:17:07.083Z,100266.20
2018-12-01T13:19:34.819Z,100264.61
2018-12-01T13:22:02.530Z,100257.91
2018-12-01T13:24:30.254Z,100264.76
2018-12-01T13:26:58.020Z,100262.92
2018-12-01T13:29:25.809Z,100264.41
2018-12-01T13:31:54.567Z,100267.45
2018-12-01T13:34:21.422Z,100263.45
2018-12-01T13:36:49.163Z,100259.20
2018-12-01T13:39:16.893Z,100271.53
2018-12-01T13:41:44.641Z,100270.75
2018-12-01T13:44:12.357Z,100268.61
2018-12-01T13:46:40.094Z,100272.10
2018-12-01T13:49:07.863Z,100274.42
2018-12-01T13:51:35.602Z,100273.77
2018-12-01T13:54:03.346Z,100276.78
2018-12-01T13:56:31.065Z,100271.36
2018-12-01T13:58:58.763Z,100280.52
2018-12-01T14:01:26.480Z,100281.66
2018-12-01T14:03:54.208Z,100275.77
2018-12-01T14:06:21.958Z,100278.53
2018-12-01T14:08:49.786Z,100278.88
2018-12-01T14:11:17.557Z,100278.84
2018-12-01T14:13:45.277Z,100276.73
2018-12-01T14:16:13.001Z,100286.47
2018-12-01T14:18:40.804Z,100286.56
2018-12-01T14:21:08.501Z,100286.23
2018-12-01T14:23:36.209Z,100284.03
2018-12-01T14:26:04.279Z,100291.69
2018-12-01T14:28:32.001Z,100288.77
2018-12-01T14:30:59.735Z,100293.98
2018-12-01T14:33:27.501Z,100290.56
2018-12-01T14:35:55.249Z,100282.24
2018-12-01T14:38:22.986Z,100286.48
2018-12-01T14:40:51.063Z,100284.91
2018-12-01T14:43:21.440Z,100290.03
2018-12-01T14:45:49.674Z,100295.46
2018-12-01T14:48:17.410Z,100297.20
2018-12-01T14:50:48.567Z,100298.45
2018-12-01T14:53:15.385Z,100297.35
2018-12-01T14:55:43.121Z,100296.93
2018-12-01T14:58:10.842Z,100299.04
2018-12-01T15:00:38.549Z,100302.80
2018-12-01T15:03:07.217Z,100304.70
2018-12-01T15:05:34.921Z,100311.46
2018-12-01T15:08:02.722Z,100305.17
2018-12-01T15:10:30.501Z,100307.19
2018-12-01T15:12:58.262Z,100309.38
2018-12-01T15:15:26.863Z,100312.07
2018-12-01T15:17:54.693Z,100318.42
2018-12-01T15:20:23.503Z,100322.19
2018-12-01T15:22:52.281Z,100322.08
2018-12-01T15:25:22.436Z,100327.34
2018-12-01T15:27:50.214Z,100321.78
2018-12-01T15:30:19.874Z,100316.77
2018-12-01T15:32:52.067Z,100318.37
2018-12-01T15:35:19.833Z,100317.34
2018-12-01T15:37:47.623Z,100331.62
2018-12-01T15:40:16.637Z,100327.13
2018-12-01T15:42:44.384Z,100328.83
2018-12-01T15:45:13.599Z,100324.53
2018-12-01T15:47:41.477Z,100333.72
2018-12-01T15:50:10.813Z,100338.90
2018-12-01T15:52:38.664Z,100340.69
2018-12-01T15:55:10.258Z,100339.09
2018-12-01T15:57:38.064Z,100334.88
2018-12-01T16:00:14.276Z,100332.52
2018-12-01T16:02:42.012Z,100331.38
2018-12-01T16:05:10.940Z,100328.05
2018-12-01T16:07:38.810Z,100332.54
2018-12-01T16:10:09.921Z,100333.59
2018-12-01T16:12:37.656Z,100322.67
2018-12-01T16:15:10.093Z,100328.70
2018-12-01T16:17:38.010Z,100329.61
2018-12-01T16:20:08.205Z,100320.94
2018-12-01T16:22:36.093Z,100328.08
2018-12-01T16:25:04.385Z,100336.57
2018-12-01T16:27:32.157Z,100337.14
2018-12-01T16:30:00.020Z,100339.03
2018-12-01T16:32:27.699Z,100343.92
2018-12-01T16:34:55.417Z,100347.77
2018-12-01T16:37:23.168Z,100347.88
2018-12-01T16:39:51.002Z,100349.77
2018-12-01T16:42:18.773Z,100352.02
2018-12-01T16:44:46.522Z,100351.03
2018-12-01T16:47:14.287Z,100347.42
2018-12-01T16:49:42.060Z,100346.79
2018-12-01T16:52:09.814Z,100344.66
2018-12-01T16:54:37.565Z,100339.33
2018-12-01T16:57:05.655Z,100339.34
2018-12-01T16:59:33.500Z,100337.45
2018-12-01T17:02:01.232Z,100336.59
2018-12-01T17:04:28.950Z,100332.84
2018-12-01T17:06:56.730Z,100327.85
2018-12-01T17:09:24.405Z,100330.21
2018-12-01T17:11:52.137Z,100328.49
2018-12-01T17:14:19.965Z,100324.92
2018-12-01T17:16:47.704Z,100331.92
2018-12-01T17:19:15.495Z,100341.59
2018-12-01T17:21:43.221Z,100341.13
2018-12-01T17:24:10.946Z,100340.92
2018-12-01T17:26:38.653Z,100344.98
2018-12-01T17:29:06.742Z,100348.20
2018-12-01T17:31:34.470Z,100354.77
2018-12-01T17:34:02.222Z,100345.36
2018-12-01T17:36:30.045Z,100348.95
2018-12-01T17:38:57.806Z,100344.25
2018-12-01T17:41:28.026Z,100343.34
2018-12-01T17:43:59.006Z,100345.24
2018-12-01T17:46:26.757Z,100342.69
2018-12-01T17:48:54.578Z,100348.72
2018-12-01T17:51:22.429Z,100350.84
2018-12-01T17:53:53.220Z,100350.80
2018-12-01T17:56:20.953Z,100354.01
2018-12-01T17:58:48.851Z,100354.01
2018-12-01T18:01:16.573Z,100356.53
2018-12-01T18:03:44.310Z,100353.99
2018-12-01T18:06:12.954Z,100361.50
2018-12-01T18:08:40.779Z,100362.05
2018-12-01T18:11:09.561Z,100364.81
2018-12-01T18:13:37.307Z,100367.81
2018-12-01T18:16:05.822Z,100370.50
2018-12-01T18:18:33.553Z,100362.58
2018-12-01T18:21:01.400Z,100358.22
2018-12-01T18:23:29.167Z,100355.23
2018-12-01T18:25:56.926Z,100355.63
2018-12-01T18:28:27.930Z,100360.73
2018-12-01T18:30:56.248Z,100362.87
2018-12-01T18:33:27.025Z,100362.58
2018-12-01T18:35:54.760Z,100359.19
2018-12-01T18:38:22.499Z,100355.86
2018-12-01T18:40:50.217Z,100357.58
2018-12-01T18:43:18.033Z,100357.02
2018-12-01T18:45:47.549Z,100354.69
2018-12-01T18:48:15.251Z,100362.08
2018-12-01T18:50:42.997Z,100359.33
2018-12-01T18:53:11.033Z,100361.49
2018-12-01T18:55:40.964Z,100371.48
2018-12-01T18:58:09.565Z,100369.52
2018-12-01T19:00:47.032Z,100375.31
2018-12-01T19:03:14.892Z,100366.39
2018-12-01T19:05:42.618Z,100365.64
2018-12-01T19:08:10.337Z,100369.69
2018-12-01T19:10:38.106Z,100371.67
2018-12-01T19:13:06.561Z,100365.28
2018-12-01T19:15:34.282Z,100368.20
2018-12-01T19:18:02.029Z,100365.91
2018-12-01T19:20:29.794Z,100371.51
2018-12-01T19:22:57.488Z,100370.73
2018-12-01T19:25:25.256Z,100375.73
2018-12-01T19:27:53.970Z,100372.13
2018-12-01T19:30:22.044Z,100372.53
2018-12-01T19:32:52.208Z,100366.19
2018-12-01T19:35:19.917Z,100374.86
2018-12-01T19:37:48.861Z,100381.56
2018-12-01T19:40:28.454Z,100387.70
2018-12-01T19:42:50.821Z,100383.65
2018-12-01T19:45:18.545Z,100382.06
2018-12-01T19:47:46.302Z,100392.05
2018-12-01T19:50:18.337Z,100378.37
2018-12-01T19:52:46.048Z,100371.67
2018-12-01T19:55:14.106Z,100374.80
2018-12-01T19:57:42.381Z,100374.05
2018-12-01T20:00:27.065Z,100381.69
2018-12-01T20:02:55.640Z,100384.97
2018-12-01T20:05:23.349Z,100391.39
2018-12-01T20:07:51.761Z,100393.46
2018-12-01T20:10:32.778Z,100388.34
2018-12-01T20:13:03.573Z,100390.70
2018-12-01T20:15:47.548Z,100391.95
2018-12-01T20:18:20.609Z,100385.22
2018-12-01T20:20:48.324Z,100389.95
2018-12-01T20:23:16.009Z,100389.38
2018-12-01T20:25:44.989Z,100393.11
2018-12-01T20:28:12.714Z,100395.25
2018-12-01T20:30:40.426Z,100386.55
2018-12-01T20:33:08.153Z,100386.23
2018-12-01T20:35:48.584Z,100382.80
2018-12-01T20:38:19.869Z,100374.48
2018-12-01T20:40:47.569Z,100369.68
2018-12-01T20:43:15.246Z,100361.77
2018-12-01T20:45:43.074Z,100366.83
2018-12-01T20:48:10.998Z,100369.08
2018-12-01T20:50:38.705Z,100372.92
2018-12-01T20:53:07.345Z,100367.98
2018-12-01T20:55:35.051Z,100364.94
2018-12-01T20:58:04.085Z,100368.31
2018-12-01T21:00:31.822Z,100378.42
2018-12-01T21:02:59.568Z,100375.71
2018-12-01T21:05:27.297Z,100375.71
2018-12-01T21:07:55.045Z,100365.80
2018-12-01T21:10:24.833Z,100369.77
2018-12-01T21:12:52.918Z,100376.53
2018-12-01T21:15:20.720Z,100373.64
2018-12-01T21:17:48.449Z,100372.59
2018-12-01T21:20:17.085Z,100359.69
2018-12-01T21:22:46.274Z,100370.59
2018-12-01T21:25:15.450Z,100370.27
2018-12-01T21:27:43.179Z,100368.06
2018-12-01T21:30:12.580Z,100375.09
2018-12-01T21:32:40.389Z,100373.08
2018-12-01T21:35:09.973Z,100366.22
2018-12-01T21:37:37.814Z,100364.54
2018-12-01T21:40:12.293Z,100369.09
2018-12-01T21:42:40.044Z,100370.71
2018-12-01T21:45:09.685Z,100366.85
2018-12-01T21:47:37.437Z,100367.84
2018-12-01T21:50:14.061Z,100364.03
2018-12-01T21:52:42.759Z,100363.20
2018-12-01T21:55:11.141Z,100359.16
2018-12-01T21:57:39.652Z,100358.22
2018-12-01T22:00:13.207Z,100356.46
2018-12-01T22:02:40.949Z,100360.05
2018-12-01T22:05:11.030Z,100361.17
2018-12-01T22:07:38.766Z,100362.35
2018-12-01T22:10:09.652Z,100357.06
2018-12-01T22:12:37.396Z,100361.92
2018-12-01T22:15:06.945Z,100365.38
2018-12-01T22:17:34.713Z,100368.95
2018-12-01T22:20:02.417Z,100363.03
2018-12-01T22:22:30.128Z,100366.16
2018-12-01T22:24:57.872Z,100364.67
2018-12-01T22:27:25.554Z,100366.44
2018-12-01T22:29:53.245Z,100362.30
2018-12-01T22:32:20.962Z,100369.25
2018-12-01T22:34:48.670Z,100376.25
2018-12-01T22:37:16.399Z,100376.42
2018-12-01T22:39:44.133Z,100373.38
2018-12-01T22:42:11.808Z,100371.72
2018-12-01T22:44:39.521Z,100376.75
2018-12-01T22:47:07.285Z,100385.06
2018-12-01T22:49:35.023Z,100379.21
2018-12-01T22:52:02.738Z,100384.85
2018-12-01T22:54:30.458Z,100382.96
2018-12-01T22:56:58.132Z,100383.55
2018-12-01T22:59:25.824Z,100382.12
2018-12-01T23:01:53.636Z,100385.88
2018-12-01T23:04:21.325Z,100380.95
2018-12-01T23:06:49.050Z,100387.05
2018-12-01T23:09:16.749Z,100389.47
2018-12-01T23:11:44.452Z,100388.19
2018-12-01T23:14:12.133Z,100383.17
2018-12-01T23:16:39.882Z,100377.89
2018-12-01T23:19:07.577Z,100380.53
2018-12-01T23:21:35.304Z,100387.31
2018-12-01T23:24:03.119Z,100379.57
2018-12-01T23:26:30.809Z,100384.75
2018-12-01T23:28:58.540Z,100383.20
2018-12-01T23:31:26.236Z,100383.73
2018-12-01T23:33:53.904Z,100384.67
2018-12-01T23:36:21.609Z,100382.96
2018-12-01T23:38:49.324Z,100383.25
2018-12-01T23:41:17.049Z,100375.82
2018-12-01T23:43:44.725Z,100378.92
2018-12-01T23:46:12.440Z,100383.74
2018-12-01T23:48:40.149Z,100388.06
2018-12-01T23:51:07.873Z,100391.55
2018-12-01T23:53:35.574Z,100394.87
2018-12-01T23:56:03.287Z,100395.39
2018-12-01T23:58:30.970Z,100395.32
